createdAt,value
2022-11-20T00:06:27.855Z,94.27
2022-11-20T00:16:49.296Z,94.69
2022-11-20T00:27:10.770Z,94.39
2022-11-20T00:37:32.228Z,94.63
2022-11-20T00:47:53.675Z,94.24
2022-11-20T00:58:15.196Z,93.68
2022-11-20T01:08:37.716Z,93.38
2022-11-20T01:19:01.213Z,93.45
2022-11-20T01:29:26.335Z,93.49
2022-11-20T01:39:47.773Z,93.91
2022-11-20T01:50:25.405Z,93.69
2022-11-20T02:00:46.863Z,93.10
2022-11-20T02:11:08.434Z,93.25
2022-11-20T02:21:48.700Z,93.36
2022-11-20T02:32:26.739Z,92.90
2022-11-20T02:42:48.699Z,92.74
2022-11-20T02:53:10.074Z,92.49
2022-11-20T03:03:31.532Z,92.47
2022-11-20T03:13:53.006Z,92.62
2022-11-20T03:24:15.987Z,92.37
2022-11-20T03:34:37.444Z,91.67
2022-11-20T03:44:59.188Z,91.60
2022-11-20T03:55:20.636Z,92.54
2022-11-20T04:05:42.076Z,91.81
2022-11-20T04:16:03.991Z,92.89
2022-11-20T04:26:26.193Z,92.61
2022-11-20T04:36:47.670Z,93.53
2022-11-20T04:47:09.114Z,94.09
2022-11-20T04:57:30.639Z,93.91
2022-11-20T05:07:52.153Z,93.82
2022-11-20T05:18:13.600Z,93.20
2022-11-20T05:28:35.318Z,93.43
2022-11-20T05:39:01.319Z,92.99
2022-11-20T05:49:25.975Z,93.90
2022-11-20T05:59:47.406Z,94.41
2022-11-20T06:10:09.271Z,94.63
2022-11-20T06:20:30.717Z,93.87
2022-11-20T06:30:52.170Z,93.13
2022-11-20T06:41:16.246Z,92.36
2022-11-20T06:51:39.189Z,92.48
2022-11-20T07:02:00.669Z,91.93
2022-11-20T07:12:22.157Z,91.92
2022-11-20T07:22:46.895Z,92.20
2022-11-20T07:33:08.346Z,91.34
2022-11-20T07:43:30.248Z,91.74
2022-11-20T07:53:53.209Z,92.22
2022-11-20T08:04:17.048Z,91.58
2022-11-20T08:14:38.513Z,91.35
2022-11-20T08:25:00.040Z,92.08
2022-11-20T08:35:22.492Z,91.43
2022-11-20T08:45:44.204Z,92.31
2022-11-20T08:56:06.425Z,91.75
2022-11-20T09:06:30.621Z,90.86
2022-11-20T09:16:52.072Z,89.85
2022-11-20T09:27:13.534Z,89.89
2022-11-20T09:37:35.392Z,90.65
2022-11-20T09:48:19.308Z,87.11
2022-11-20T09:58:48.564Z,86.98
2022-11-20T10:09:19.967Z,86.76
2022-11-20T10:20:12.674Z,85.87
2022-11-20T10:30:41.225Z,84.82
2022-11-20T10:41:23.821Z,86.81
2022-11-20T10:52:05.677Z,85.36
2022-11-20T11:02:53.994Z,83.46
2022-11-20T11:13:23.885Z,83.57
2022-11-20T11:23:45.335Z,82.46
2022-11-20T11:34:17.630Z,82.89
2022-11-20T11:45:04.934Z,81.76
2022-11-20T11:55:44.028Z,81.10
2022-11-20T12:06:15.315Z,80.76
2022-11-20T12:16:38.884Z,81.79
2022-11-20T12:27:35.176Z,79.91
2022-11-20T12:38:38.733Z,81.71
2022-11-20T12:49:06.438Z,80.45
2022-11-20T12:59:46.845Z,81.96
2022-11-20T13:10:19.214Z,80.40
2022-11-20T13:20:45.986Z,80.62
2022-11-20T13:31:25.572Z,80.50
2022-11-20T13:41:55.736Z,79.26
2022-11-20T13:52:32.520Z,76.85
2022-11-20T14:03:06.182Z,77.84
2022-11-20T14:13:27.624Z,77.73
2022-11-20T14:23:49.071Z,77.03
2022-11-20T14:34:21.375Z,74.97
2022-11-20T14:44:43.847Z,77.72
2022-11-20T14:55:05.832Z,79.29
2022-11-20T15:05:46.322Z,80.41
2022-11-20T15:16:27.807Z,80.06
2022-11-20T15:26:49.388Z,79.47
2022-11-20T15:37:10.866Z,82.75
2022-11-20T15:47:35.313Z,82.52
2022-11-20T15:57:56.797Z,82.64
2022-11-20T16:08:18.299Z,81.32
2022-11-20T16:18:39.770Z,82.83
2022-11-20T16:29:03.431Z,82.21
2022-11-20T16:39:26.079Z,81.86
2022-11-20T16:49:47.525Z,82.20
2022-11-20T17:00:09.676Z,83.23
2022-11-20T17:10:34.261Z,84.13
2022-11-20T17:20:55.792Z,85.25
2022-11-20T17:31:17.473Z,85.90
2022-11-20T17:41:38.991Z,84.80
2022-11-20T17:52:00.512Z,85.66
2022-11-20T18:02:25.014Z,86.35
2022-11-20T18:12:46.536Z,87.96
2022-11-20T18:23:07.995Z,86.83
2022-11-20T18:33:31.504Z,87.00
2022-11-20T18:44:11.460Z,85.85
2022-11-20T18:54:35.680Z,86.47
2022-11-20T19:04:57.201Z,86.85
2022-11-20T19:15:18.990Z,86.96
2022-11-20T19:25:40.452Z,88.23
2022-11-20T19:36:10.343Z,89.02
2022-11-20T19:46:33.925Z,88.00
2022-11-20T19:56:55.704Z,88.09
2022-11-20T20:07:19.906Z,87.61
2022-11-20T20:17:41.468Z,86.31
2022-11-20T20:28:02.951Z,87.69
2022-11-20T20:38:24.410Z,87.78
2022-11-20T20:48:49.069Z,86.92
2022-11-20T20:59:14.555Z,88.59
2022-11-20T21:09:36.228Z,90.94
2022-11-20T21:19:57.719Z,91.17
2022-11-20T21:30:19.258Z,91.25
2022-11-20T21:40:40.711Z,90.80
2022-11-20T21:51:10.828Z,91.87
2022-11-20T22:01:32.431Z,91.07
2022-11-20T22:11:53.996Z,92.44
2022-11-20T22:22:15.450Z,92.68
2022-11-20T22:32:36.891Z,93.47
2022-11-20T22:42:58.396Z,94.03
2022-11-20T22:53:19.865Z,94.12
2022-11-20T23:03:44.421Z,94.44
2022-11-20T23:14:08.335Z,94.29
2022-11-20T23:24:29.828Z,95.38
2022-11-20T23:34:51.565Z,95.27
2022-11-20T23:45:13.136Z,95.72
2022-11-20T23:55:35.167Z,96.05
